Terminal Aerodrome Forecast
Issued by NWS Grand Forks, ND

Home | Current Version | Previous Version | Text Only | Print | Product List | Glossary On
Versions: 1 2 3 4 5 6 7 8 9 10 11 12 13 14 15 16 17 18 19 20 21 22
000
FTUS43 KFGF 080520
TAFFAR
TAF
KFAR 080520Z 0806/0906 31018G28KT 3SM BLSN OVC015
      TEMPO 0806/0808 2SM -SN OVC010
     FM080900 31015G23KT 3SM BLSN OVC020
     FM081200 31014KT P6SM OVC025
     FM081600 32016KT P6SM OVC035
     FM090100 31010KT P6SM BKN015
     FM090500 31008KT P6SM BKN025=

USA.gov is the U.S. government's official web portal to all federal, state and local government web resources and services.